sim
Sign-in with your pilot id or email,
or register
Callsign
Passwort

Schedule Details

Flight Number: OEC87694
Departure: Stuttgart Airport (EDDS) at 12:00 UTC
Arrival: Fuerteventura Airport (GCFV) at 15:56 UTC

Weather Information
Getting current METAR information for EDDS 160250Z 34001KT CAVOK M01/M03 Q1028
Getting current METAR information for GCFV 160230Z AUTO 28005KT 9999 NCD 13/10 Q1018

Schedule Frequency

Route Map